createdAt,value
2022-11-01T00:01:34.058Z,49.96
2022-11-01T00:04:00.562Z,49.86
2022-11-01T00:06:27.057Z,49.78
2022-11-01T00:08:53.586Z,49.72
2022-11-01T00:11:20.546Z,49.76
2022-11-01T00:13:49.127Z,49.53
2022-11-01T00:16:16.930Z,49.69
2022-11-01T00:18:43.467Z,49.57
2022-11-01T00:21:11.212Z,49.53
2022-11-01T00:23:39.549Z,49.79
2022-11-01T00:26:06.877Z,49.52
2022-11-01T00:28:33.601Z,49.56
2022-11-01T00:31:00.554Z,49.43
2022-11-01T00:33:27.227Z,49.26
2022-11-01T00:35:53.761Z,49.58
2022-11-01T00:38:20.333Z,49.37
2022-11-01T00:40:47.076Z,49.40
2022-11-01T00:43:14.062Z,49.40
2022-11-01T00:45:43.963Z,49.04
2022-11-01T00:48:10.769Z,49.16
2022-11-01T00:50:37.218Z,49.45
2022-11-01T00:53:03.886Z,49.22
2022-11-01T00:55:30.423Z,49.34
2022-11-01T00:57:56.903Z,49.40
2022-11-01T01:00:23.706Z,49.50
2022-11-01T01:02:50.154Z,49.18
2022-11-01T01:05:16.746Z,49.45
2022-11-01T01:07:43.216Z,49.33
2022-11-01T01:10:10.103Z,49.16
2022-11-01T01:12:36.635Z,49.09
2022-11-01T01:15:03.346Z,49.16
2022-11-01T01:17:33.639Z,49.14
2022-11-01T01:20:00.455Z,49.18
2022-11-01T01:22:28.259Z,49.19
2022-11-01T01:24:54.947Z,49.24
2022-11-01T01:27:21.580Z,49.11
2022-11-01T01:29:48.036Z,49.15
2022-11-01T01:32:16.194Z,49.03
2022-11-01T01:34:43.031Z,49.11
2022-11-01T01:37:11.050Z,48.98
2022-11-01T01:39:38.207Z,49.00
2022-11-01T01:42:14.388Z,48.80
2022-11-01T01:45:20.147Z,49.00
2022-11-01T01:47:51.868Z,48.94
2022-11-01T01:50:36.646Z,48.89
2022-11-01T01:53:18.676Z,48.94
2022-11-01T01:55:48.235Z,48.92
2022-11-01T01:58:18.995Z,48.71
2022-11-01T02:00:45.796Z,48.90
2022-11-01T02:03:13.755Z,48.74
2022-11-01T02:05:58.166Z,48.81
2022-11-01T02:08:27.972Z,48.85
2022-11-01T02:10:58.102Z,48.84
2022-11-01T02:13:24.569Z,48.79
2022-11-01T02:16:29.991Z,48.74
2022-11-01T02:19:18.374Z,48.81
2022-11-01T02:22:17.346Z,48.70
2022-11-01T02:25:11.024Z,48.75
2022-11-01T02:27:57.727Z,48.84
2022-11-01T02:30:24.939Z,48.84
2022-11-01T02:33:17.028Z,48.75
2022-11-01T02:35:54.413Z,48.99
2022-11-01T02:38:26.659Z,48.94
2022-11-01T02:41:08.395Z,48.78
2022-11-01T02:44:06.200Z,48.78
2022-11-01T02:46:55.948Z,48.90
2022-11-01T02:49:24.203Z,48.73
2022-11-01T02:51:52.601Z,48.79
2022-11-01T02:54:27.403Z,48.79
2022-11-01T02:56:54.747Z,48.58
2022-11-01T02:59:24.988Z,48.60
2022-11-01T03:02:01.746Z,48.85
2022-11-01T03:04:28.374Z,48.94
2022-11-01T03:07:01.138Z,48.75
2022-11-01T03:09:28.478Z,48.70
2022-11-01T03:11:58.466Z,48.65
2022-11-01T03:14:38.257Z,48.83
2022-11-01T03:17:45.011Z,48.56
2022-11-01T03:20:22.916Z,48.77
2022-11-01T03:22:56.520Z,48.73
2022-11-01T03:25:42.935Z,48.48
2022-11-01T03:28:18.823Z,48.55
2022-11-01T03:30:50.305Z,49.02
2022-11-01T03:33:18.403Z,48.73
2022-11-01T03:35:49.006Z,48.34
2022-11-01T03:38:23.046Z,48.99
2022-11-01T03:40:54.892Z,48.70
2022-11-01T03:43:26.470Z,48.49
2022-11-01T03:45:53.405Z,48.62
2022-11-01T03:48:19.894Z,48.74
2022-11-01T03:50:48.471Z,48.65
2022-11-01T03:53:15.359Z,48.94
2022-11-01T03:55:42.275Z,48.69
2022-11-01T03:58:09.391Z,48.61
2022-11-01T04:00:46.394Z,48.71
2022-11-01T04:03:13.746Z,48.72
2022-11-01T04:05:41.265Z,48.50
2022-11-01T04:08:09.587Z,48.66
2022-11-01T04:10:36.368Z,48.62
2022-11-01T04:13:03.714Z,48.70
2022-11-01T04:15:49.034Z,48.60
2022-11-01T04:18:36.000Z,48.52
2022-11-01T04:21:06.231Z,48.64
2022-11-01T04:23:33.925Z,48.78
2022-11-01T04:26:00.853Z,48.71
2022-11-01T04:28:27.402Z,48.55
2022-11-01T04:30:53.851Z,48.73
2022-11-01T04:33:20.568Z,48.61
2022-11-01T04:35:47.179Z,48.51
2022-11-01T04:38:14.082Z,48.52
2022-11-01T04:40:41.654Z,48.64
2022-11-01T04:43:08.442Z,48.57
2022-11-01T04:45:35.065Z,48.52
2022-11-01T04:48:06.550Z,48.55
2022-11-01T04:50:34.185Z,48.54
2022-11-01T04:53:01.939Z,48.50
2022-11-01T04:55:28.810Z,48.60
2022-11-01T04:57:55.875Z,48.58
2022-11-01T05:00:25.280Z,48.65
2022-11-01T05:02:52.464Z,48.29
2022-11-01T05:05:19.374Z,48.54
2022-11-01T05:07:45.867Z,48.53
2022-11-01T05:10:12.530Z,48.44
2022-11-01T05:12:39.003Z,48.50
2022-11-01T05:15:06.294Z,48.54
2022-11-01T05:17:32.750Z,48.66
2022-11-01T05:19:59.199Z,48.64
2022-11-01T05:22:25.678Z,48.62
2022-11-01T05:24:53.156Z,48.61
2022-11-01T05:27:19.730Z,48.63
2022-11-01T05:29:46.175Z,48.76
2022-11-01T05:32:12.662Z,48.54
2022-11-01T05:34:39.102Z,48.54
2022-11-01T05:37:05.566Z,48.75
2022-11-01T05:39:31.983Z,48.53
2022-11-01T05:42:01.708Z,48.50
2022-11-01T05:44:29.722Z,48.77
2022-11-01T05:46:56.336Z,48.50
2022-11-01T05:49:22.933Z,48.49
2022-11-01T05:51:49.381Z,48.57
2022-11-01T05:54:16.165Z,48.58
2022-11-01T05:56:42.624Z,48.58
2022-11-01T05:59:09.217Z,48.53
2022-11-01T06:01:35.718Z,48.69
2022-11-01T06:04:02.593Z,48.51
2022-11-01T06:06:30.037Z,48.66
2022-11-01T06:08:57.754Z,48.44
2022-11-01T06:11:25.907Z,48.77
2022-11-01T06:13:57.046Z,48.51
2022-11-01T06:16:24.243Z,48.50
2022-11-01T06:18:50.968Z,48.59
2022-11-01T06:21:17.536Z,48.65
2022-11-01T06:23:48.171Z,48.53
2022-11-01T06:26:14.689Z,48.57
2022-11-01T06:28:41.147Z,48.57
2022-11-01T06:31:07.647Z,48.53
2022-11-01T06:33:34.557Z,48.64
2022-11-01T06:36:02.079Z,48.59
2022-11-01T06:38:28.668Z,48.61
2022-11-01T06:40:55.244Z,48.48
2022-11-01T06:43:21.700Z,48.44
2022-11-01T06:45:48.201Z,48.62
2022-11-01T06:48:14.643Z,48.70
2022-11-01T06:50:41.073Z,48.72
2022-11-01T06:53:07.534Z,48.64
2022-11-01T06:55:34.026Z,48.63
2022-11-01T06:58:02.281Z,48.56
2022-11-01T07:00:30.350Z,48.28
2022-11-01T07:03:06.041Z,48.55
2022-11-01T07:05:37.081Z,46.43
2022-11-01T07:08:08.917Z,47.90
2022-11-01T07:10:37.385Z,48.45
2022-11-01T07:13:06.018Z,48.38
2022-11-01T07:15:32.846Z,48.32
2022-11-01T07:18:01.795Z,48.32
2022-11-01T07:20:30.140Z,48.22
2022-11-01T07:23:01.615Z,47.92
2022-11-01T07:25:29.640Z,48.00
2022-11-01T07:27:56.831Z,47.77
2022-11-01T07:30:24.062Z,48.09
2022-11-01T07:32:59.142Z,48.16
2022-11-01T07:35:26.769Z,47.97
2022-11-01T07:37:56.416Z,48.08
2022-11-01T07:40:27.665Z,48.09
2022-11-01T07:42:59.965Z,48.01
2022-11-01T07:45:31.206Z,48.04
2022-11-01T07:48:06.565Z,47.93
2022-11-01T07:50:34.310Z,47.99
2022-11-01T07:53:01.676Z,48.07
2022-11-01T07:55:28.456Z,47.92
2022-11-01T07:57:55.008Z,48.09
2022-11-01T08:00:21.917Z,48.20
2022-11-01T08:02:48.522Z,47.89
2022-11-01T08:05:15.236Z,48.11
2022-11-01T08:07:42.441Z,48.06
2022-11-01T08:10:10.972Z,47.91
2022-11-01T08:12:37.838Z,47.99
2022-11-01T08:15:05.411Z,47.39
2022-11-01T08:17:33.909Z,47.89
2022-11-01T08:20:00.388Z,48.01
2022-11-01T08:22:26.850Z,48.01
2022-11-01T08:24:53.338Z,48.25
2022-11-01T08:27:19.792Z,48.30
2022-11-01T08:29:46.451Z,48.28
2022-11-01T08:32:13.069Z,48.28
2022-11-01T08:34:39.519Z,48.08
2022-11-01T08:37:06.640Z,47.98
2022-11-01T08:39:33.114Z,47.99
2022-11-01T08:42:00.517Z,47.71
2022-11-01T08:44:27.022Z,47.33
2022-11-01T08:46:55.285Z,47.47
2022-11-01T08:49:21.716Z,47.15
2022-11-01T08:51:48.157Z,47.15
2022-11-01T08:54:14.650Z,47.01
2022-11-01T08:56:41.135Z,46.91
2022-11-01T08:59:07.757Z,46.68
2022-11-01T09:01:34.837Z,48.00
2022-11-01T09:04:01.851Z,47.94
2022-11-01T09:06:33.747Z,48.45
2022-11-01T09:09:03.734Z,50.48
2022-11-01T09:11:30.721Z,52.12
2022-11-01T09:13:58.018Z,51.34
2022-11-01T09:16:24.834Z,52.06
2022-11-01T09:18:51.289Z,52.77
2022-11-01T09:21:18.284Z,52.75
2022-11-01T09:23:46.346Z,52.88
2022-11-01T09:26:13.362Z,50.95
2022-11-01T09:28:40.625Z,50.89
2022-11-01T09:31:19.813Z,51.82
2022-11-01T09:33:47.405Z,51.53
2022-11-01T09:36:13.930Z,52.26
2022-11-01T09:38:40.423Z,52.44
2022-11-01T09:41:25.686Z,52.56
2022-11-01T09:43:54.315Z,52.74
2022-11-01T09:46:25.937Z,52.79
2022-11-01T09:48:54.131Z,52.18
2022-11-01T09:51:23.702Z,52.72
2022-11-01T09:53:54.043Z,50.78
2022-11-01T09:56:23.193Z,51.82
2022-11-01T09:59:07.138Z,51.35
2022-11-01T10:02:05.949Z,51.56
2022-11-01T10:04:45.175Z,51.72
2022-11-01T10:07:41.008Z,51.14
2022-11-01T10:10:22.589Z,50.93
2022-11-01T10:13:21.141Z,50.59
2022-11-01T10:16:28.856Z,50.51
2022-11-01T10:19:04.613Z,50.11
2022-11-01T10:21:46.803Z,49.84
2022-11-01T10:24:54.641Z,49.59
2022-11-01T10:27:52.988Z,49.53
2022-11-01T10:30:20.357Z,49.54
2022-11-01T10:33:06.578Z,49.44
2022-11-01T10:35:37.480Z,49.44
2022-11-01T10:38:38.071Z,49.28
2022-11-01T10:41:23.324Z,48.96
2022-11-01T10:44:01.118Z,48.81
2022-11-01T10:46:32.209Z,48.68
2022-11-01T10:49:03.465Z,48.52
2022-11-01T10:51:33.715Z,48.76
2022-11-01T10:54:05.527Z,48.47
2022-11-01T10:56:44.658Z,48.27
2022-11-01T10:59:47.945Z,48.29
2022-11-01T11:02:25.374Z,48.26
2022-11-01T11:04:52.427Z,48.19
2022-11-01T11:07:24.017Z,48.08
2022-11-01T11:09:51.275Z,48.06
2022-11-01T11:12:20.695Z,47.92
2022-11-01T11:14:53.366Z,48.02
2022-11-01T11:17:26.476Z,48.05
2022-11-01T11:19:53.550Z,47.81
2022-11-01T11:22:22.285Z,47.78
2022-11-01T11:24:50.640Z,47.85
2022-11-01T11:27:23.779Z,47.75
2022-11-01T11:29:56.553Z,47.83
2022-11-01T11:32:26.517Z,47.56
2022-11-01T11:35:08.612Z,47.57
2022-11-01T11:37:38.542Z,45.70
2022-11-01T11:40:24.397Z,46.69
2022-11-01T11:42:53.706Z,46.78
2022-11-01T11:45:24.394Z,47.06
2022-11-01T11:47:51.663Z,46.93
2022-11-01T11:50:21.058Z,47.09
2022-11-01T11:52:50.247Z,46.82
2022-11-01T11:55:43.701Z,46.85
2022-11-01T11:58:21.662Z,46.99
2022-11-01T12:00:52.455Z,47.07
2022-11-01T12:03:19.419Z,47.15
2022-11-01T12:06:22.775Z,46.90
2022-11-01T12:08:54.719Z,47.15
2022-11-01T12:11:23.837Z,46.75
2022-11-01T12:14:17.636Z,46.92
2022-11-01T12:16:44.124Z,47.12
2022-11-01T12:19:28.663Z,47.14
2022-11-01T12:21:58.491Z,46.89
2022-11-01T12:24:42.447Z,46.77
2022-11-01T12:27:14.582Z,47.13
2022-11-01T12:29:47.401Z,46.66
2022-11-01T12:32:21.227Z,46.78
2022-11-01T12:34:50.510Z,46.84
2022-11-01T12:37:25.929Z,46.80
2022-11-01T12:40:05.333Z,46.92
2022-11-01T12:42:34.399Z,46.79
2022-11-01T12:45:10.748Z,46.76
2022-11-01T12:47:43.609Z,46.74
2022-11-01T12:50:21.159Z,46.76
2022-11-01T12:53:10.267Z,46.96
2022-11-01T12:55:42.359Z,46.79
2022-11-01T12:58:16.251Z,46.98
2022-11-01T13:00:42.682Z,47.01
2022-11-01T13:03:33.014Z,46.67
2022-11-01T13:06:05.355Z,46.74
2022-11-01T13:08:50.037Z,46.86
2022-11-01T13:11:30.017Z,47.04
2022-11-01T13:14:19.631Z,46.71
2022-11-01T13:16:53.434Z,46.67
2022-11-01T13:19:43.675Z,46.72
2022-11-01T13:22:29.656Z,46.69
2022-11-01T13:25:12.214Z,46.65
2022-11-01T13:28:03.099Z,46.66
2022-11-01T13:30:31.075Z,46.76
2022-11-01T13:33:27.871Z,46.78
2022-11-01T13:36:11.261Z,46.31
2022-11-01T13:38:47.873Z,46.53
2022-11-01T13:41:29.389Z,46.79
2022-11-01T13:44:06.603Z,46.75
2022-11-01T13:46:51.492Z,46.60
2022-11-01T13:49:57.017Z,46.75
2022-11-01T13:52:28.931Z,46.63
2022-11-01T13:55:20.224Z,46.56
2022-11-01T13:57:46.972Z,46.59
2022-11-01T14:00:50.021Z,46.54
2022-11-01T14:03:18.033Z,46.58
2022-11-01T14:05:45.992Z,46.53
2022-11-01T14:08:25.287Z,46.71
2022-11-01T14:10:52.578Z,46.65
2022-11-01T14:13:30.140Z,46.46
2022-11-01T14:15:57.242Z,46.60
2022-11-01T14:18:24.636Z,46.63
2022-11-01T14:20:51.751Z,46.78
2022-11-01T14:23:31.496Z,46.76
2022-11-01T14:26:56.516Z,46.44
2022-11-01T14:29:23.057Z,46.67
2022-11-01T14:31:52.686Z,46.39
2022-11-01T14:34:35.747Z,46.68
2022-11-01T14:37:25.776Z,46.77
2022-11-01T14:40:00.861Z,46.48
2022-11-01T14:42:37.184Z,46.64
2022-11-01T14:45:16.110Z,46.52
2022-11-01T14:47:43.326Z,46.68
2022-11-01T14:50:29.470Z,46.48
2022-11-01T14:53:06.719Z,46.57
2022-11-01T14:55:36.845Z,46.55
2022-11-01T14:58:21.070Z,46.60
2022-11-01T15:00:50.485Z,46.41
2022-11-01T15:03:18.191Z,46.55
2022-11-01T15:05:49.734Z,46.57
2022-11-01T15:08:25.875Z,46.65
2022-11-01T15:10:55.351Z,46.37
2022-11-01T15:13:22.913Z,46.45
2022-11-01T15:16:13.092Z,46.68
2022-11-01T15:18:46.859Z,46.51
2022-11-01T15:21:21.168Z,46.40
2022-11-01T15:23:51.279Z,46.61
2022-11-01T15:26:20.456Z,46.41
2022-11-01T15:28:53.696Z,46.62
2022-11-01T15:31:20.871Z,46.51
2022-11-01T15:34:01.872Z,46.64
2022-11-01T15:36:37.124Z,46.57
2022-11-01T15:39:17.609Z,46.42
2022-11-01T15:41:44.203Z,46.53
2022-11-01T15:44:19.490Z,46.65
2022-11-01T15:46:46.749Z,46.58
2022-11-01T15:49:18.519Z,46.72
2022-11-01T15:51:50.593Z,46.34
2022-11-01T15:54:21.808Z,46.51
2022-11-01T15:56:57.121Z,46.50
2022-11-01T15:59:29.661Z,46.48
2022-11-01T16:02:00.782Z,46.59
2022-11-01T16:04:35.195Z,46.73
2022-11-01T16:07:06.976Z,46.55
2022-11-01T16:09:47.134Z,46.73
2022-11-01T16:12:32.789Z,46.54
2022-11-01T16:15:24.681Z,46.67
2022-11-01T16:17:55.704Z,46.54
2022-11-01T16:20:29.088Z,46.41
2022-11-01T16:22:57.407Z,46.50
2022-11-01T16:25:25.987Z,46.28
2022-11-01T16:28:26.304Z,46.40
2022-11-01T16:30:55.151Z,46.72
2022-11-01T16:33:23.421Z,46.31
2022-11-01T16:35:52.627Z,46.56
2022-11-01T16:38:23.247Z,46.29
2022-11-01T16:40:56.042Z,46.41
2022-11-01T16:43:24.700Z,46.67
2022-11-01T16:45:51.391Z,46.54
2022-11-01T16:48:24.182Z,46.46
2022-11-01T16:50:52.667Z,46.44
2022-11-01T16:53:20.478Z,46.55
2022-11-01T16:55:48.019Z,46.58
2022-11-01T16:58:26.051Z,46.50
2022-11-01T17:00:55.424Z,46.42
2022-11-01T17:03:24.346Z,46.33
2022-11-01T17:05:56.079Z,46.41
2022-11-01T17:08:24.991Z,46.65
2022-11-01T17:10:51.972Z,46.36
2022-11-01T17:13:18.584Z,46.23
2022-11-01T17:15:49.339Z,46.28
2022-11-01T17:18:27.987Z,46.68
2022-11-01T17:20:56.519Z,46.41
2022-11-01T17:23:24.751Z,46.52
2022-11-01T17:25:53.277Z,46.60
2022-11-01T17:28:24.865Z,46.54
2022-11-01T17:30:52.174Z,46.53
2022-11-01T17:33:18.541Z,46.65
2022-11-01T17:35:44.992Z,46.52
2022-11-01T17:38:29.967Z,46.74
2022-11-01T17:40:57.016Z,46.54
2022-11-01T17:43:23.655Z,46.40
2022-11-01T17:45:50.742Z,46.61
2022-11-01T17:48:18.250Z,46.44
2022-11-01T17:50:45.366Z,46.22
2022-11-01T17:53:13.898Z,46.49
2022-11-01T17:55:40.998Z,46.37
2022-11-01T17:58:08.122Z,46.45
2022-11-01T18:00:35.090Z,46.56
2022-11-01T18:03:02.264Z,46.53
2022-11-01T18:05:28.822Z,46.49
2022-11-01T18:07:55.333Z,46.42
2022-11-01T18:10:31.201Z,46.44
2022-11-01T18:13:10.453Z,46.57
2022-11-01T18:15:47.816Z,46.33
2022-11-01T18:18:55.708Z,46.43
2022-11-01T18:21:45.077Z,46.46
2022-11-01T18:24:21.222Z,46.55
2022-11-01T18:26:48.787Z,46.29
2022-11-01T18:29:23.910Z,46.54
2022-11-01T18:32:09.483Z,46.56
2022-11-01T18:34:47.692Z,46.31
2022-11-01T18:37:22.379Z,46.47
2022-11-01T18:40:23.181Z,46.36
2022-11-01T18:42:51.633Z,46.41
2022-11-01T18:45:30.411Z,46.41
2022-11-01T18:48:12.899Z,46.46
2022-11-01T18:50:39.527Z,46.36
2022-11-01T18:53:06.134Z,46.57
2022-11-01T18:55:33.134Z,46.43
2022-11-01T18:58:13.159Z,46.30
2022-11-01T19:00:39.836Z,46.25
2022-11-01T19:03:15.025Z,46.22
2022-11-01T19:05:42.146Z,46.18
2022-11-01T19:08:24.803Z,46.23
2022-11-01T19:10:52.896Z,46.36
2022-11-01T19:13:28.679Z,46.19
2022-11-01T19:15:57.464Z,46.40
2022-11-01T19:18:24.113Z,46.21
2022-11-01T19:20:53.764Z,45.93
2022-11-01T19:23:38.910Z,46.22
2022-11-01T19:26:32.066Z,46.27
2022-11-01T19:28:58.930Z,46.21
2022-11-01T19:31:25.978Z,46.36
2022-11-01T19:33:55.680Z,46.27
2022-11-01T19:36:25.307Z,46.51
2022-11-01T19:38:53.137Z,46.43
2022-11-01T19:41:31.935Z,46.29
2022-11-01T19:44:02.239Z,46.23
2022-11-01T19:46:30.070Z,46.13
2022-11-01T19:48:56.551Z,46.20
2022-11-01T19:51:23.880Z,46.39
2022-11-01T19:53:51.394Z,46.26
2022-11-01T19:56:22.781Z,46.16
2022-11-01T19:59:00.370Z,46.37
2022-11-01T20:01:42.274Z,46.36
2022-11-01T20:04:17.406Z,46.34
2022-11-01T20:06:48.602Z,46.35
2022-11-01T20:09:27.335Z,46.33
2022-11-01T20:11:53.999Z,46.22
2022-11-01T20:14:20.791Z,46.13
2022-11-01T20:16:47.307Z,46.17
2022-11-01T20:19:17.403Z,46.14
2022-11-01T20:21:44.607Z,46.19
2022-11-01T20:24:11.120Z,46.07
2022-11-01T20:26:37.638Z,46.21
2022-11-01T20:29:04.200Z,46.09
2022-11-01T20:31:31.166Z,46.19
2022-11-01T20:33:58.279Z,46.21
2022-11-01T20:36:24.811Z,46.24
2022-11-01T20:38:51.553Z,46.17
2022-11-01T20:41:19.133Z,46.24
2022-11-01T20:43:45.644Z,46.21
2022-11-01T20:46:12.347Z,46.18
2022-11-01T20:48:38.913Z,46.28
2022-11-01T20:51:06.193Z,46.23
2022-11-01T20:53:32.850Z,46.21
2022-11-01T20:55:59.342Z,46.32
2022-11-01T20:58:26.898Z,46.23
2022-11-01T21:00:53.932Z,46.16
2022-11-01T21:03:24.511Z,46.30
2022-11-01T21:05:51.601Z,46.46
2022-11-01T21:08:23.906Z,46.29
2022-11-01T21:11:01.645Z,46.37
2022-11-01T21:13:41.888Z,46.27
2022-11-01T21:16:16.396Z,46.43
2022-11-01T21:18:44.896Z,46.34
2022-11-01T21:21:14.065Z,46.41
2022-11-01T21:23:43.072Z,46.25
2022-11-01T21:26:17.466Z,46.40
2022-11-01T21:28:49.204Z,46.41
2022-11-01T21:31:15.609Z,46.62
2022-11-01T21:33:49.026Z,46.75
2022-11-01T21:36:18.351Z,46.49
2022-11-01T21:38:51.970Z,46.63
2022-11-01T21:41:34.756Z,47.00
2022-11-01T21:44:11.904Z,46.93
2022-11-01T21:46:38.353Z,46.93
2022-11-01T21:49:21.643Z,46.94
2022-11-01T21:51:48.385Z,47.04
2022-11-01T21:54:14.878Z,46.96
2022-11-01T21:56:41.337Z,46.56
2022-11-01T21:59:07.778Z,46.70
2022-11-01T22:01:34.319Z,46.81
2022-11-01T22:04:00.999Z,46.72
2022-11-01T22:06:27.426Z,46.75
2022-11-01T22:08:53.882Z,47.15
2022-11-01T22:11:23.583Z,47.01
2022-11-01T22:13:50.387Z,47.10
2022-11-01T22:16:16.834Z,46.97
2022-11-01T22:18:43.286Z,47.11
2022-11-01T22:21:09.714Z,46.97
2022-11-01T22:23:36.147Z,46.94
2022-11-01T22:26:02.604Z,47.00
2022-11-01T22:28:29.059Z,46.86
2022-11-01T22:30:55.508Z,47.11
2022-11-01T22:33:22.010Z,47.12
2022-11-01T22:35:48.563Z,47.05
2022-11-01T22:38:19.142Z,46.98
2022-11-01T22:41:01.403Z,47.08
2022-11-01T22:43:28.516Z,46.97
2022-11-01T22:45:55.243Z,46.75
2022-11-01T22:48:23.421Z,46.83
2022-11-01T22:50:50.240Z,46.78
2022-11-01T22:53:21.018Z,46.83
2022-11-01T22:55:51.263Z,46.75
2022-11-01T22:58:38.131Z,46.84
2022-11-01T23:01:21.353Z,46.84
2022-11-01T23:03:52.809Z,46.71
2022-11-01T23:06:32.791Z,46.89
2022-11-01T23:09:14.821Z,46.87
2022-11-01T23:12:03.087Z,46.80
2022-11-01T23:14:37.427Z,46.93
2022-11-01T23:17:21.153Z,46.74
2022-11-01T23:19:51.351Z,46.63
2022-11-01T23:22:24.070Z,46.79
2022-11-01T23:24:52.610Z,46.71
2022-11-01T23:27:20.590Z,46.63
2022-11-01T23:29:54.203Z,46.64
2022-11-01T23:32:20.677Z,46.71
2022-11-01T23:34:48.266Z,46.69
2022-11-01T23:37:23.869Z,46.53
2022-11-01T23:39:50.390Z,46.41
2022-11-01T23:42:20.710Z,46.63
2022-11-01T23:44:53.642Z,46.66
2022-11-01T23:47:23.123Z,46.63
2022-11-01T23:49:57.113Z,46.66
2022-11-01T23:52:32.328Z,46.84
2022-11-01T23:54:58.851Z,46.53
2022-11-01T23:57:25.384Z,46.46
2022-11-01T23:59:52.259Z,46.53
